sensor_id;sensor_type;location;lat;lon;timestamp;P1;durP1;ratioP1;P2;durP2;ratioP2
17967;SDS011;9109;48.050;11.696;2022-10-30T04:47:59;17.57;;;3.37;;
17967;SDS011;9109;48.050;11.696;2022-10-30T04:51:02;11.70;;;2.60;;
17967;SDS011;9109;48.050;11.696;2022-10-30T04:54:06;15.30;;;2.70;;
17967;SDS011;9109;48.050;11.696;2022-10-30T04:57:23;14.03;;;2.63;;
17967;SDS011;9109;48.050;11.696;2022-10-30T05:00:25;10.37;;;2.07;;
17967;SDS011;9109;48.050;11.696;2022-10-30T05:03:29;22.30;;;2.83;;
17967;SDS011;9109;48.050;11.696;2022-10-30T05:06:31;18.03;;;2.33;;
17967;SDS011;9109;48.050;11.696;2022-10-30T05:09:34;14.80;;;2.87;;
17967;SDS011;9109;48.050;11.696;2022-10-30T05:12:36;11.83;;;2.63;;
17967;SDS011;9109;48.050;11.696;2022-10-30T05:15:38;14.27;;;3.00;;
17967;SDS011;9109;48.050;11.696;2022-10-30T05:18:41;10.20;;;2.23;;
17967;SDS011;9109;48.050;11.696;2022-10-30T05:21:43;17.07;;;2.97;;
17967;SDS011;9109;48.050;11.696;2022-10-30T05:24:45;7.97;;;2.97;;
17967;SDS011;9109;48.050;11.696;2022-10-30T05:27:48;17.73;;;2.70;;
17967;SDS011;9109;48.050;11.696;2022-10-30T05:30:51;16.77;;;3.40;;
17967;SDS011;9109;48.050;11.696;2022-10-30T05:33:55;10.60;;;2.87;;
17967;SDS011;9109;48.050;11.696;2022-10-30T05:36:57;20.50;;;3.23;;
17967;SDS011;9109;48.050;11.696;2022-10-30T05:40:02;13.57;;;2.80;;
17967;SDS011;9109;48.050;11.696;2022-10-30T05:43:05;19.30;;;3.83;;
17967;SDS011;9109;48.050;11.696;2022-10-30T05:46:07;16.37;;;2.87;;
17967;SDS011;9109;48.050;11.696;2022-10-30T05:49:10;11.67;;;3.00;;
17967;SDS011;9109;48.050;11.696;2022-10-30T05:52:12;16.17;;;2.60;;
17967;SDS011;9109;48.050;11.696;2022-10-30T05:55:15;14.13;;;2.83;;
17967;SDS011;9109;48.050;11.696;2022-10-30T05:58:19;10.73;;;3.13;;
17967;SDS011;9109;48.050;11.696;2022-10-30T06:01:21;18.33;;;4.13;;
17967;SDS011;9109;48.050;11.696;2022-10-30T06:04:25;16.87;;;4.20;;
17967;SDS011;9109;48.050;11.696;2022-10-30T06:07:26;15.83;;;4.23;;
17967;SDS011;9109;48.050;11.696;2022-10-30T06:10:28;14.90;;;4.33;;
17967;SDS011;9109;48.050;11.696;2022-10-30T06:13:35;28.73;;;5.53;;
17967;SDS011;9109;48.050;11.696;2022-10-30T06:16:39;26.60;;;6.73;;
17967;SDS011;9109;48.050;11.696;2022-10-30T06:19:42;32.83;;;6.53;;
17967;SDS011;9109;48.050;11.696;2022-10-30T06:22:51;34.97;;;6.73;;
17967;SDS011;9109;48.050;11.696;2022-10-30T06:25:54;23.90;;;5.47;;
17967;SDS011;9109;48.050;11.696;2022-10-30T06:28:56;20.13;;;5.37;;
17967;SDS011;9109;48.050;11.696;2022-10-30T06:31:58;21.10;;;5.00;;
17967;SDS011;9109;48.050;11.696;2022-10-30T06:35:02;37.63;;;5.50;;
17967;SDS011;9109;48.050;11.696;2022-10-30T06:38:04;24.67;;;5.00;;
17967;SDS011;9109;48.050;11.696;2022-10-30T06:41:07;27.97;;;5.13;;
17967;SDS011;9109;48.050;11.696;2022-10-30T06:44:09;17.30;;;4.67;;
17967;SDS011;9109;48.050;11.696;2022-10-30T06:47:18;19.13;;;3.63;;
17967;SDS011;9109;48.050;11.696;2022-10-30T06:54:14;16.80;;;4.47;;
17967;SDS011;9109;48.050;11.696;2022-10-30T06:57:16;15.70;;;3.63;;
17967;SDS011;9109;48.050;11.696;2022-10-30T07:00:18;11.23;;;3.10;;
17967;SDS011;9109;48.050;11.696;2022-10-30T07:03:23;11.67;;;3.83;;
17967;SDS011;9109;48.050;11.696;2022-10-30T07:06:25;12.43;;;3.70;;
17967;SDS011;9109;48.050;11.696;2022-10-30T07:09:43;14.67;;;3.73;;
17967;SDS011;9109;48.050;11.696;2022-10-30T07:12:50;13.47;;;3.43;;
17967;SDS011;9109;48.050;11.696;2022-10-30T07:15:56;7.93;;;3.13;;
17967;SDS011;9109;48.050;11.696;2022-10-30T07:18:58;11.70;;;3.33;;
17967;SDS011;9109;48.050;11.696;2022-10-30T07:22:01;12.67;;;3.57;;
17967;SDS011;9109;48.050;11.696;2022-10-30T07:25:05;14.80;;;3.87;;
17967;SDS011;9109;48.050;11.696;2022-10-30T07:28:07;13.47;;;3.97;;
17967;SDS011;9109;48.050;11.696;2022-10-30T07:31:12;20.73;;;4.80;;
17967;SDS011;9109;48.050;11.696;2022-10-30T07:34:14;15.10;;;4.60;;
17967;SDS011;9109;48.050;11.696;2022-10-30T07:37:31;11.30;;;3.97;;
17967;SDS011;9109;48.050;11.696;2022-10-30T07:40:34;16.97;;;4.10;;
17967;SDS011;9109;48.050;11.696;2022-10-30T07:43:44;16.80;;;3.67;;
17967;SDS011;9109;48.050;11.696;2022-10-30T07:46:55;17.77;;;5.10;;
17967;SDS011;9109;48.050;11.696;2022-10-30T07:50:00;23.73;;;4.13;;
17967;SDS011;9109;48.050;11.696;2022-10-30T07:53:07;15.73;;;3.55;;
17967;SDS011;9109;48.050;11.696;2022-10-30T07:56:15;19.70;;;3.90;;
17967;SDS011;9109;48.050;11.696;2022-10-30T07:59:17;20.10;;;3.97;;
17967;SDS011;9109;48.050;11.696;2022-10-30T08:02:19;15.90;;;3.70;;
17967;SDS011;9109;48.050;11.696;2022-10-30T08:05:21;17.20;;;3.35;;
17967;SDS011;9109;48.050;11.696;2022-10-30T08:08:23;19.55;;;3.50;;
17967;SDS011;9109;48.050;11.696;2022-10-30T08:11:26;16.10;;;4.47;;
17967;SDS011;9109;48.050;11.696;2022-10-30T08:14:28;19.48;;;3.85;;
17967;SDS011;9109;48.050;11.696;2022-10-30T08:17:30;11.07;;;3.47;;
17967;SDS011;9109;48.050;11.696;2022-10-30T08:20:31;18.03;;;2.80;;
17967;SDS011;9109;48.050;11.696;2022-10-30T08:23:33;22.30;;;3.10;;
17967;SDS011;9109;48.050;11.696;2022-10-30T08:26:37;24.95;;;2.92;;
17967;SDS011;9109;48.050;11.696;2022-10-30T08:29:39;11.27;;;2.70;;
17967;SDS011;9109;48.050;11.696;2022-10-30T08:32:41;11.13;;;2.88;;
17967;SDS011;9109;48.050;11.696;2022-10-30T08:35:46;16.02;;;3.40;;
17967;SDS011;9109;48.050;11.696;2022-10-30T08:38:49;11.25;;;2.80;;
17967;SDS011;9109;48.050;11.696;2022-10-30T08:41:52;23.20;;;3.47;;
17967;SDS011;9109;48.050;11.696;2022-10-30T08:44:54;13.15;;;3.10;;
17967;SDS011;9109;48.050;11.696;2022-10-30T08:47:56;22.63;;;3.15;;
17967;SDS011;9109;48.050;11.696;2022-10-30T08:50:59;13.82;;;3.13;;
17967;SDS011;9109;48.050;11.696;2022-10-30T08:54:01;14.85;;;2.78;;
17967;SDS011;9109;48.050;11.696;2022-10-30T08:57:04;18.42;;;2.95;;
17967;SDS011;9109;48.050;11.696;2022-10-30T09:00:06;16.20;;;3.17;;
17967;SDS011;9109;48.050;11.696;2022-10-30T09:03:09;15.10;;;3.17;;
17967;SDS011;9109;48.050;11.696;2022-10-30T09:06:11;10.82;;;2.92;;
17967;SDS011;9109;48.050;11.696;2022-10-30T09:09:13;10.32;;;2.88;;
17967;SDS011;9109;48.050;11.696;2022-10-30T09:12:16;10.90;;;3.10;;
17967;SDS011;9109;48.050;11.696;2022-10-30T09:15:18;14.00;;;3.38;;
17967;SDS011;9109;48.050;11.696;2022-10-30T09:18:20;8.95;;;2.78;;
17967;SDS011;9109;48.050;11.696;2022-10-30T09:21:22;10.95;;;2.70;;
17967;SDS011;9109;48.050;11.696;2022-10-30T09:24:24;14.30;;;2.97;;
17967;SDS011;9109;48.050;11.696;2022-10-30T09:27:27;13.20;;;3.08;;
17967;SDS011;9109;48.050;11.696;2022-10-30T09:30:29;15.13;;;3.33;;
17967;SDS011;9109;48.050;11.696;2022-10-30T09:33:31;23.77;;;3.55;;
17967;SDS011;9109;48.050;11.696;2022-10-30T09:36:33;16.58;;;2.95;;
17967;SDS011;9109;48.050;11.696;2022-10-30T09:39:35;16.20;;;3.60;;
17967;SDS011;9109;48.050;11.696;2022-10-30T09:42:41;22.13;;;3.13;;
17967;SDS011;9109;48.050;11.696;2022-10-30T09:45:51;28.23;;;2.97;;
17967;SDS011;9109;48.050;11.696;2022-10-30T09:49:21;16.90;;;3.38;;
17967;SDS011;9109;48.050;11.696;2022-10-30T09:52:34;14.85;;;2.33;;
17967;SDS011;9109;48.050;11.696;2022-10-30T09:55:43;15.40;;;3.15;;
17967;SDS011;9109;48.050;11.696;2022-10-30T09:58:56;11.10;;;2.67;;
17967;SDS011;9109;48.050;11.696;2022-10-30T10:02:10;15.48;;;2.50;;
17967;SDS011;9109;48.050;11.696;2022-10-30T10:05:25;15.73;;;2.67;;
17967;SDS011;9109;48.050;11.696;2022-10-30T10:08:31;26.60;;;2.80;;
17967;SDS011;9109;48.050;11.696;2022-10-30T10:11:38;19.00;;;3.15;;
17967;SDS011;9109;48.050;11.696;2022-10-30T10:14:43;16.08;;;2.53;;
17967;SDS011;9109;48.050;11.696;2022-10-30T10:17:48;11.45;;;2.67;;
17967;SDS011;9109;48.050;11.696;2022-10-30T10:20:51;17.77;;;3.30;;
17967;SDS011;9109;48.050;11.696;2022-10-30T10:23:56;12.15;;;2.42;;
17967;SDS011;9109;48.050;11.696;2022-10-30T10:27:03;15.63;;;2.45;;
17967;SDS011;9109;48.050;11.696;2022-10-30T10:30:16;18.65;;;3.15;;
17967;SDS011;9109;48.050;11.696;2022-10-30T10:33:25;15.90;;;2.58;;
17967;SDS011;9109;48.050;11.696;2022-10-30T10:36:42;20.85;;;2.95;;
17967;SDS011;9109;48.050;11.696;2022-10-30T10:39:55;20.92;;;2.95;;
17967;SDS011;9109;48.050;11.696;2022-10-30T10:43:24;16.20;;;2.63;;
17967;SDS011;9109;48.050;11.696;2022-10-30T10:46:39;14.50;;;3.38;;
17967;SDS011;9109;48.050;11.696;2022-10-30T10:49:56;25.13;;;3.10;;
17967;SDS011;9109;48.050;11.696;2022-10-30T10:53:17;13.48;;;2.25;;
17967;SDS011;9109;48.050;11.696;2022-10-30T10:56:25;19.52;;;2.33;;
17967;SDS011;9109;48.050;11.696;2022-10-30T10:59:32;11.43;;;2.25;;
17967;SDS011;9109;48.050;11.696;2022-10-30T11:02:39;23.33;;;2.97;;
17967;SDS011;9109;48.050;11.696;2022-10-30T11:05:45;11.27;;;2.55;;
17967;SDS011;9109;48.050;11.696;2022-10-30T11:08:51;17.40;;;3.42;;
17967;SDS011;9109;48.050;11.696;2022-10-30T11:12:00;11.85;;;2.55;;
17967;SDS011;9109;48.050;11.696;2022-10-30T11:15:05;11.05;;;2.38;;
17967;SDS011;9109;48.050;11.696;2022-10-30T11:18:21;12.77;;;2.63;;
17967;SDS011;9109;48.050;11.696;2022-10-30T11:21:23;20.58;;;2.28;;
17967;SDS011;9109;48.050;11.696;2022-10-30T11:24:27;14.07;;;2.45;;
17967;SDS011;9109;48.050;11.696;2022-10-30T11:27:30;13.40;;;3.55;;
17967;SDS011;9109;48.050;11.696;2022-10-30T11:30:33;17.77;;;3.05;;
17967;SDS011;9109;48.050;11.696;2022-10-30T11:33:36;11.93;;;2.58;;
17967;SDS011;9109;48.050;11.696;2022-10-30T11:36:38;12.05;;;2.30;;
17967;SDS011;9109;48.050;11.696;2022-10-30T11:39:40;15.05;;;2.65;;
17967;SDS011;9109;48.050;11.696;2022-10-30T11:42:42;9.52;;;2.33;;
17967;SDS011;9109;48.050;11.696;2022-10-30T11:45:47;20.27;;;2.70;;
17967;SDS011;9109;48.050;11.696;2022-10-30T11:48:51;26.15;;;3.42;;
17967;SDS011;9109;48.050;11.696;2022-10-30T11:51:54;15.55;;;2.55;;
17967;SDS011;9109;48.050;11.696;2022-10-30T11:54:57;21.33;;;4.03;;
17967;SDS011;9109;48.050;11.696;2022-10-30T11:58:03;17.77;;;2.45;;
17967;SDS011;9109;48.050;11.696;2022-10-30T12:01:11;9.65;;;3.05;;
17967;SDS011;9109;48.050;11.696;2022-10-30T12:04:21;11.27;;;2.70;;
17967;SDS011;9109;48.050;11.696;2022-10-30T12:07:25;16.42;;;3.00;;
17967;SDS011;9109;48.050;11.696;2022-10-30T12:10:29;18.40;;;2.90;;
17967;SDS011;9109;48.050;11.696;2022-10-30T12:13:32;13.55;;;3.05;;
17967;SDS011;9109;48.050;11.696;2022-10-30T12:16:42;15.80;;;3.20;;
17967;SDS011;9109;48.050;11.696;2022-10-30T12:19:48;13.88;;;2.90;;
17967;SDS011;9109;48.050;11.696;2022-10-30T12:22:53;15.25;;;2.65;;
17967;SDS011;9109;48.050;11.696;2022-10-30T12:25:56;16.63;;;3.15;;
17967;SDS011;9109;48.050;11.696;2022-10-30T12:29:00;20.13;;;3.20;;
17967;SDS011;9109;48.050;11.696;2022-10-30T12:32:06;12.85;;;2.65;;
17967;SDS011;9109;48.050;11.696;2022-10-30T12:38:41;14.63;;;2.85;;
17967;SDS011;9109;48.050;11.696;2022-10-30T12:41:45;16.30;;;3.33;;
17967;SDS011;9109;48.050;11.696;2022-10-30T12:45:01;19.38;;;3.70;;
17967;SDS011;9109;48.050;11.696;2022-10-30T12:48:10;15.15;;;2.85;;
17967;SDS011;9109;48.050;11.696;2022-10-30T12:51:20;10.52;;;2.50;;
17967;SDS011;9109;48.050;11.696;2022-10-30T12:54:28;13.27;;;2.67;;
17967;SDS011;9109;48.050;11.696;2022-10-30T12:57:36;14.27;;;2.45;;
17967;SDS011;9109;48.050;11.696;2022-10-30T13:00:44;18.48;;;3.08;;
17967;SDS011;9109;48.050;11.696;2022-10-30T13:03:52;22.63;;;3.63;;
17967;SDS011;9109;48.050;11.696;2022-10-30T13:07:02;24.83;;;3.50;;
17967;SDS011;9109;48.050;11.696;2022-10-30T13:10:12;15.52;;;3.35;;
17967;SDS011;9109;48.050;11.696;2022-10-30T13:13:23;17.73;;;3.63;;
17967;SDS011;9109;48.050;11.696;2022-10-30T13:16:30;16.38;;;2.92;;
17967;SDS011;9109;48.050;11.696;2022-10-30T13:19:32;20.90;;;3.38;;
17967;SDS011;9109;48.050;11.696;2022-10-30T13:22:42;17.27;;;2.72;;
17967;SDS011;9109;48.050;11.696;2022-10-30T13:25:52;10.02;;;2.53;;
17967;SDS011;9109;48.050;11.696;2022-10-30T13:29:04;18.55;;;3.38;;
17967;SDS011;9109;48.050;11.696;2022-10-30T13:32:21;26.80;;;3.70;;
17967;SDS011;9109;48.050;11.696;2022-10-30T13:35:31;11.10;;;2.80;;
17967;SDS011;9109;48.050;11.696;2022-10-30T13:38:40;9.70;;;3.10;;
17967;SDS011;9109;48.050;11.696;2022-10-30T13:41:54;17.35;;;3.35;;
17967;SDS011;9109;48.050;11.696;2022-10-30T13:45:11;16.95;;;2.83;;
17967;SDS011;9109;48.050;11.696;2022-10-30T13:48:29;11.63;;;2.60;;
17967;SDS011;9109;48.050;11.696;2022-10-30T13:51:39;20.05;;;3.10;;
17967;SDS011;9109;48.050;11.696;2022-10-30T13:54:47;18.63;;;2.78;;
17967;SDS011;9109;48.050;11.696;2022-10-30T13:57:56;17.65;;;3.20;;
17967;SDS011;9109;48.050;11.696;2022-10-30T14:01:03;13.05;;;2.42;;
17967;SDS011;9109;48.050;11.696;2022-10-30T14:04:11;13.80;;;2.78;;
17967;SDS011;9109;48.050;11.696;2022-10-30T14:07:23;32.50;;;5.03;;
17967;SDS011;9109;48.050;11.696;2022-10-30T14:10:37;43.20;;;4.68;;
17967;SDS011;9109;48.050;11.696;2022-10-30T14:13:49;37.40;;;4.72;;
17967;SDS011;9109;48.050;11.696;2022-10-30T14:17:11;17.13;;;3.70;;
17967;SDS011;9109;48.050;11.696;2022-10-30T14:20:20;17.80;;;4.47;;
17967;SDS011;9109;48.050;11.696;2022-10-30T14:23:28;15.50;;;3.75;;
17967;SDS011;9109;48.050;11.696;2022-10-30T14:26:34;23.05;;;3.63;;
17967;SDS011;9109;48.050;11.696;2022-10-30T14:29:37;16.38;;;3.00;;
17967;SDS011;9109;48.050;11.696;2022-10-30T14:32:49;51.25;;;4.75;;
17967;SDS011;9109;48.050;11.696;2022-10-30T14:42:40;18.90;;;3.30;;
17967;SDS011;9109;48.050;11.696;2022-10-30T14:45:51;67.03;;;6.35;;
17967;SDS011;9109;48.050;11.696;2022-10-30T14:49:00;81.70;;;7.07;;
17967;SDS011;9109;48.050;11.696;2022-10-30T14:52:12;50.33;;;5.63;;
17967;SDS011;9109;48.050;11.696;2022-10-30T14:55:22;68.32;;;5.63;;
17967;SDS011;9109;48.050;11.696;2022-10-30T14:58:30;31.65;;;3.92;;
17967;SDS011;9109;48.050;11.696;2022-10-30T15:01:35;32.60;;;4.65;;
17967;SDS011;9109;48.050;11.696;2022-10-30T15:04:48;26.75;;;4.07;;
17967;SDS011;9109;48.050;11.696;2022-10-30T15:08:06;23.38;;;3.50;;
17967;SDS011;9109;48.050;11.696;2022-10-30T15:11:24;24.27;;;3.20;;
17967;SDS011;9109;48.050;11.696;2022-10-30T15:14:35;14.45;;;3.45;;
17967;SDS011;9109;48.050;11.696;2022-10-30T15:17:42;14.70;;;3.10;;
17967;SDS011;9109;48.050;11.696;2022-10-30T15:20:48;24.63;;;3.75;;
17967;SDS011;9109;48.050;11.696;2022-10-30T15:23:51;10.40;;;3.38;;
17967;SDS011;9109;48.050;11.696;2022-10-30T15:26:57;19.05;;;3.28;;
17967;SDS011;9109;48.050;11.696;2022-10-30T15:30:03;10.65;;;3.00;;
17967;SDS011;9109;48.050;11.696;2022-10-30T15:33:15;17.33;;;3.55;;
17967;SDS011;9109;48.050;11.696;2022-10-30T15:36:21;29.27;;;4.18;;
17967;SDS011;9109;48.050;11.696;2022-10-30T15:39:23;22.92;;;3.85;;
17967;SDS011;9109;48.050;11.696;2022-10-30T15:42:25;17.95;;;3.92;;
17967;SDS011;9109;48.050;11.696;2022-10-30T15:45:31;15.88;;;3.47;;
17967;SDS011;9109;48.050;11.696;2022-10-30T15:48:34;19.40;;;3.95;;
17967;SDS011;9109;48.050;11.696;2022-10-30T15:51:38;13.43;;;3.05;;
17967;SDS011;9109;48.050;11.696;2022-10-30T15:54:46;22.50;;;3.10;;
17967;SDS011;9109;48.050;11.696;2022-10-30T15:57:52;17.35;;;2.97;;
17967;SDS011;9109;48.050;11.696;2022-10-30T16:00:58;12.27;;;3.45;;
17967;SDS011;9109;48.050;11.696;2022-10-30T16:04:01;11.98;;;3.65;;
17967;SDS011;9109;48.050;11.696;2022-10-30T16:07:14;15.55;;;3.17;;
17967;SDS011;9109;48.050;11.696;2022-10-30T16:10:18;22.00;;;4.45;;
17967;SDS011;9109;48.050;11.696;2022-10-30T16:13:22;15.20;;;2.92;;
17967;SDS011;9109;48.050;11.696;2022-10-30T16:16:30;15.55;;;3.00;;
17967;SDS011;9109;48.050;11.696;2022-10-30T16:19:33;14.38;;;3.20;;
17967;SDS011;9109;48.050;11.696;2022-10-30T16:22:40;29.50;;;4.25;;
17967;SDS011;9109;48.050;11.696;2022-10-30T16:25:42;9.23;;;3.30;;
17967;SDS011;9109;48.050;11.696;2022-10-30T16:28:45;18.52;;;3.63;;
17967;SDS011;9109;48.050;11.696;2022-10-30T16:31:49;28.40;;;4.50;;
17967;SDS011;9109;48.050;11.696;2022-10-30T16:34:53;12.93;;;3.00;;
17967;SDS011;9109;48.050;11.696;2022-10-30T16:37:57;15.30;;;3.72;;
17967;SDS011;9109;48.050;11.696;2022-10-30T16:41:02;13.23;;;3.63;;
17967;SDS011;9109;48.050;11.696;2022-10-30T16:47:30;16.63;;;3.17;;
17967;SDS011;9109;48.050;11.696;2022-10-30T16:50:36;20.25;;;5.57;;
17967;SDS011;9109;48.050;11.696;2022-10-30T16:53:38;11.88;;;3.15;;
17967;SDS011;9109;48.050;11.696;2022-10-30T16:56:40;12.88;;;3.20;;
17967;SDS011;9109;48.050;11.696;2022-10-30T16:59:47;11.80;;;3.42;;
17967;SDS011;9109;48.050;11.696;2022-10-30T17:02:52;10.63;;;3.15;;
17967;SDS011;9109;48.050;11.696;2022-10-30T17:05:57;14.65;;;4.10;;
17967;SDS011;9109;48.050;11.696;2022-10-30T17:09:02;13.50;;;3.58;;
17967;SDS011;9109;48.050;11.696;2022-10-30T17:12:13;19.60;;;3.67;;
17967;SDS011;9109;48.050;11.696;2022-10-30T17:15:18;15.85;;;4.00;;
17967;SDS011;9109;48.050;11.696;2022-10-30T17:18:28;12.52;;;4.10;;
17967;SDS011;9109;48.050;11.696;2022-10-30T17:21:36;10.25;;;3.50;;
17967;SDS011;9109;48.050;11.696;2022-10-30T17:24:40;23.02;;;3.88;;
17967;SDS011;9109;48.050;11.696;2022-10-30T17:27:44;12.68;;;3.58;;
17967;SDS011;9109;48.050;11.696;2022-10-30T17:30:48;20.73;;;3.58;;
17967;SDS011;9109;48.050;11.696;2022-10-30T17:34:12;22.50;;;4.00;;
17967;SDS011;9109;48.050;11.696;2022-10-30T17:37:17;30.25;;;6.35;;
17967;SDS011;9109;48.050;11.696;2022-10-30T17:40:19;18.58;;;4.00;;
17967;SDS011;9109;48.050;11.696;2022-10-30T17:43:22;13.93;;;4.15;;
17967;SDS011;9109;48.050;11.696;2022-10-30T17:46:29;14.98;;;3.88;;
17967;SDS011;9109;48.050;11.696;2022-10-30T17:49:32;15.30;;;3.80;;
17967;SDS011;9109;48.050;11.696;2022-10-30T17:52:35;7.38;;;3.22;;
17967;SDS011;9109;48.050;11.696;2022-10-30T17:55:37;15.30;;;3.55;;
17967;SDS011;9109;48.050;11.696;2022-10-30T17:58:39;22.25;;;3.60;;
17967;SDS011;9109;48.050;11.696;2022-10-30T18:01:41;15.82;;;3.70;;
17967;SDS011;9109;48.050;11.696;2022-10-30T18:04:45;8.43;;;3.30;;
17967;SDS011;9109;48.050;11.696;2022-10-30T18:07:47;11.63;;;3.65;;
17967;SDS011;9109;48.050;11.696;2022-10-30T18:10:49;13.80;;;4.68;;
17967;SDS011;9109;48.050;11.696;2022-10-30T18:13:52;15.55;;;4.45;;
17967;SDS011;9109;48.050;11.696;2022-10-30T18:16:56;21.20;;;4.72;;
17967;SDS011;9109;48.050;11.696;2022-10-30T18:19:59;13.02;;;4.80;;
17967;SDS011;9109;48.050;11.696;2022-10-30T18:23:01;19.45;;;4.65;;
17967;SDS011;9109;48.050;11.696;2022-10-30T18:26:03;13.80;;;4.88;;
17967;SDS011;9109;48.050;11.696;2022-10-30T18:29:05;18.00;;;4.97;;
17967;SDS011;9109;48.050;11.696;2022-10-30T18:32:08;10.15;;;4.00;;
17967;SDS011;9109;48.050;11.696;2022-10-30T18:35:13;21.65;;;4.75;;
17967;SDS011;9109;48.050;11.696;2022-10-30T18:38:18;19.08;;;4.55;;
17967;SDS011;9109;48.050;11.696;2022-10-30T18:41:21;28.60;;;4.57;;
17967;SDS011;9109;48.050;11.696;2022-10-30T18:44:26;12.50;;;4.53;;
17967;SDS011;9109;48.050;11.696;2022-10-30T18:47:28;18.10;;;3.88;;
17967;SDS011;9109;48.050;11.696;2022-10-30T18:50:32;23.67;;;4.22;;
17967;SDS011;9109;48.050;11.696;2022-10-30T18:53:34;12.40;;;3.55;;
17967;SDS011;9109;48.050;11.696;2022-10-30T18:56:36;14.38;;;3.58;;
17967;SDS011;9109;48.050;11.696;2022-10-30T18:59:38;17.30;;;3.63;;
17967;SDS011;9109;48.050;11.696;2022-10-30T19:02:40;12.43;;;4.00;;
17967;SDS011;9109;48.050;11.696;2022-10-30T19:05:44;14.52;;;4.35;;
17967;SDS011;9109;48.050;11.696;2022-10-30T19:08:48;13.40;;;4.10;;
17967;SDS011;9109;48.050;11.696;2022-10-30T19:11:52;12.82;;;4.82;;
17967;SDS011;9109;48.050;11.696;2022-10-30T19:14:54;13.65;;;3.80;;
17967;SDS011;9109;48.050;11.696;2022-10-30T19:17:56;6.22;;;3.13;;
17967;SDS011;9109;48.050;11.696;2022-10-30T19:20:59;21.95;;;4.93;;
17967;SDS011;9109;48.050;11.696;2022-10-30T19:24:01;14.68;;;4.60;;
17967;SDS011;9109;48.050;11.696;2022-10-30T19:27:09;12.43;;;3.92;;
17967;SDS011;9109;48.050;11.696;2022-10-30T19:30:11;14.30;;;4.22;;
17967;SDS011;9109;48.050;11.696;2022-10-30T19:33:13;12.77;;;4.95;;
17967;SDS011;9109;48.050;11.696;2022-10-30T19:36:25;13.82;;;4.80;;
17967;SDS011;9109;48.050;11.696;2022-10-30T19:39:29;21.85;;;4.32;;
17967;SDS011;9109;48.050;11.696;2022-10-30T19:42:32;15.55;;;4.55;;
17967;SDS011;9109;48.050;11.696;2022-10-30T19:45:33;16.05;;;4.53;;
17967;SDS011;9109;48.050;11.696;2022-10-30T19:48:36;13.98;;;4.85;;
17967;SDS011;9109;48.050;11.696;2022-10-30T19:51:39;14.65;;;5.10;;
17967;SDS011;9109;48.050;11.696;2022-10-30T19:54:41;18.95;;;5.47;;
17967;SDS011;9109;48.050;11.696;2022-10-30T19:57:43;17.98;;;4.05;;
17967;SDS011;9109;48.050;11.696;2022-10-30T20:00:45;12.90;;;4.25;;
17967;SDS011;9109;48.050;11.696;2022-10-30T20:03:47;17.45;;;4.60;;
17967;SDS011;9109;48.050;11.696;2022-10-30T20:06:50;15.38;;;4.25;;
17967;SDS011;9109;48.050;11.696;2022-10-30T20:09:52;15.57;;;4.80;;
17967;SDS011;9109;48.050;11.696;2022-10-30T20:12:54;22.48;;;5.43;;
17967;SDS011;9109;48.050;11.696;2022-10-30T20:15:57;13.65;;;5.25;;
17967;SDS011;9109;48.050;11.696;2022-10-30T20:19:02;14.95;;;4.72;;
17967;SDS011;9109;48.050;11.696;2022-10-30T20:22:21;15.15;;;5.13;;
17967;SDS011;9109;48.050;11.696;2022-10-30T20:25:24;16.52;;;5.00;;
17967;SDS011;9109;48.050;11.696;2022-10-30T20:28:27;15.43;;;5.82;;
17967;SDS011;9109;48.050;11.696;2022-10-30T20:32:03;21.17;;;5.82;;
17967;SDS011;9109;48.050;11.696;2022-10-30T20:55:00;14.02;;;4.68;;
17967;SDS011;9109;48.050;11.696;2022-10-30T20:58:03;14.98;;;4.30;;
17967;SDS011;9109;48.050;11.696;2022-10-30T21:01:08;14.63;;;4.80;;
17967;SDS011;9109;48.050;11.696;2022-10-30T21:04:18;15.77;;;4.85;;
17967;SDS011;9109;48.050;11.696;2022-10-30T21:07:23;21.05;;;5.30;;
17967;SDS011;9109;48.050;11.696;2022-10-30T21:10:27;19.20;;;5.88;;
17967;SDS011;9109;48.050;11.696;2022-10-30T21:13:29;20.65;;;5.22;;
17967;SDS011;9109;48.050;11.696;2022-10-30T21:16:33;11.57;;;4.75;;
17967;SDS011;9109;48.050;11.696;2022-10-30T21:19:35;12.10;;;4.68;;
17967;SDS011;9109;48.050;11.696;2022-10-30T21:22:36;25.92;;;6.07;;
17967;SDS011;9109;48.050;11.696;2022-10-30T21:25:40;21.05;;;6.30;;
17967;SDS011;9109;48.050;11.696;2022-10-30T21:28:45;17.50;;;5.60;;
17967;SDS011;9109;48.050;11.696;2022-10-30T21:31:47;20.85;;;5.90;;
17967;SDS011;9109;48.050;11.696;2022-10-30T21:34:49;16.95;;;5.60;;
17967;SDS011;9109;48.050;11.696;2022-10-30T21:37:51;18.80;;;5.72;;
17967;SDS011;9109;48.050;11.696;2022-10-30T21:40:57;12.60;;;5.60;;
17967;SDS011;9109;48.050;11.696;2022-10-30T21:43:59;19.95;;;5.53;;
17967;SDS011;9109;48.050;11.696;2022-10-30T21:47:02;18.58;;;5.90;;
17967;SDS011;9109;48.050;11.696;2022-10-30T21:50:04;13.13;;;4.72;;
17967;SDS011;9109;48.050;11.696;2022-10-30T21:53:16;16.65;;;5.40;;
17967;SDS011;9109;48.050;11.696;2022-10-30T21:56:19;19.02;;;6.10;;
17967;SDS011;9109;48.050;11.696;2022-10-30T21:59:22;14.82;;;4.70;;
17967;SDS011;9109;48.050;11.696;2022-10-30T22:02:24;14.10;;;5.28;;
17967;SDS011;9109;48.050;11.696;2022-10-30T22:05:27;14.48;;;5.30;;
17967;SDS011;9109;48.050;11.696;2022-10-30T22:08:28;12.18;;;5.13;;
17967;SDS011;9109;48.050;11.696;2022-10-30T22:11:34;18.90;;;6.00;;
17967;SDS011;9109;48.050;11.696;2022-10-30T22:14:39;20.75;;;5.72;;
17967;SDS011;9109;48.050;11.696;2022-10-30T22:17:44;16.13;;;5.45;;
17967;SDS011;9109;48.050;11.696;2022-10-30T22:20:46;19.27;;;5.72;;
17967;SDS011;9109;48.050;11.696;2022-10-30T22:23:48;14.75;;;5.22;;
17967;SDS011;9109;48.050;11.696;2022-10-30T22:26:53;13.10;;;5.55;;
17967;SDS011;9109;48.050;11.696;2022-10-30T22:29:55;15.57;;;4.53;;
17967;SDS011;9109;48.050;11.696;2022-10-30T22:32:57;14.23;;;4.25;;
17967;SDS011;9109;48.050;11.696;2022-10-30T22:36:02;16.05;;;4.93;;
17967;SDS011;9109;48.050;11.696;2022-10-30T22:39:06;12.13;;;4.40;;
17967;SDS011;9109;48.050;11.696;2022-10-30T22:42:17;16.23;;;5.25;;
17967;SDS011;9109;48.050;11.696;2022-10-30T22:45:19;20.35;;;3.80;;
17967;SDS011;9109;48.050;11.696;2022-10-30T22:48:21;10.25;;;3.72;;
17967;SDS011;9109;48.050;11.696;2022-10-30T22:51:30;12.70;;;4.78;;
17967;SDS011;9109;48.050;11.696;2022-10-30T22:54:50;12.45;;;4.25;;
17967;SDS011;9109;48.050;11.696;2022-10-30T22:58:00;11.82;;;4.30;;
17967;SDS011;9109;48.050;11.696;2022-10-30T23:01:08;15.55;;;4.55;;
17967;SDS011;9109;48.050;11.696;2022-10-30T23:04:12;15.57;;;4.85;;
17967;SDS011;9109;48.050;11.696;2022-10-30T23:07:15;17.98;;;3.92;;
17967;SDS011;9109;48.050;11.696;2022-10-30T23:10:21;13.00;;;3.92;;
17967;SDS011;9109;48.050;11.696;2022-10-30T23:13:24;15.73;;;3.85;;
17967;SDS011;9109;48.050;11.696;2022-10-30T23:16:27;10.75;;;4.30;;
17967;SDS011;9109;48.050;11.696;2022-10-30T23:19:29;14.35;;;3.80;;
17967;SDS011;9109;48.050;11.696;2022-10-30T23:22:31;5.05;;;2.80;;
17967;SDS011;9109;48.050;11.696;2022-10-30T23:25:33;17.67;;;3.33;;
17967;SDS011;9109;48.050;11.696;2022-10-30T23:28:41;22.33;;;5.20;;
17967;SDS011;9109;48.050;11.696;2022-10-30T23:31:44;15.18;;;4.38;;
17967;SDS011;9109;48.050;11.696;2022-10-30T23:34:49;13.60;;;3.23;;
17967;SDS011;9109;48.050;11.696;2022-10-30T23:37:51;11.88;;;3.50;;
17967;SDS011;9109;48.050;11.696;2022-10-30T23:40:53;18.17;;;3.78;;
17967;SDS011;9109;48.050;11.696;2022-10-30T23:43:59;12.73;;;3.42;;
17967;SDS011;9109;48.050;11.696;2022-10-30T23:47:04;11.02;;;2.90;;